Time;durP1;ratioP1;P1;durP2;ratioP2;P2;SDS_P1;SDS_P2;PMS_P1;PMS_P2;Temp;Humidity;BMP_temperature;BMP_pressure;BME280_temperature;BME280_humidity;BME280_pressure;Samples;Min_cycle;Max_cycle;Signal;HPM_P1;HPM_P2
2021/03/31 00:05:18;;;;;;;10.90;6.93;;;;;;;14.05;44.62;96570.63;4998266;28;20209;-84
2021/03/31 00:07:51;;;;;;;13.43;7.73;;;;;;;14.01;44.33;96561.63;5070955;28;20205;-83
2021/03/31 00:10:28;;;;;;;10.50;6.60;;;;;;;13.96;45.00;96563.94;5070524;28;20230;-85
2021/03/31 00:12:56;;;;;;;9.60;6.77;;;;;;;14.07;44.24;96567.88;5070747;28;20232;-85
2021/03/31 00:15:25;;;;;;;9.00;7.00;;;;;;;14.11;45.03;96561.38;5070775;28;20248;-84
2021/03/31 00:17:53;;;;;;;10.47;6.67;;;;;;;14.19;44.51;96553.56;5070315;28;20646;-84
2021/03/31 00:20:55;;;;;;;10.40;6.73;;;;;;;14.17;44.32;96555.50;5069665;28;20595;-84
2021/03/31 00:23:44;;;;;;;9.63;6.93;;;;;;;14.05;44.80;96552.50;5060295;28;20238;-84
2021/03/31 00:26:34;;;;;;;10.10;7.90;;;;;;;14.02;45.31;96552.06;5058774;28;20598;-84
2021/03/31 00:29:29;;;;;;;14.83;7.87;;;;;;;14.10;45.09;96549.41;5063541;28;20208;-84
2021/03/31 00:32:14;;;;;;;9.87;7.50;;;;;;;14.15;45.12;96549.69;5062601;28;20258;-83
2021/03/31 00:34:59;;;;;;;14.63;7.57;;;;;;;14.15;45.40;96544.50;5068897;28;20213;-83
2021/03/31 00:37:41;;;;;;;11.47;6.97;;;;;;;14.20;45.07;96547.41;5060976;28;20303;-84
2021/03/31 00:40:20;;;;;;;12.33;7.20;;;;;;;14.13;45.04;96536.13;5041688;28;20980;-84
2021/03/31 00:43:23;;;;;;;12.33;7.57;;;;;;;14.08;45.68;96541.81;5039533;28;20229;-84
2021/03/31 00:48:43;;;;;;;13.70;7.87;;;;;;;14.00;45.18;96541.09;5036778;28;20752;-84
2021/03/31 00:51:12;;;;;;;9.53;6.80;;;;;;;14.02;45.60;96544.31;5030388;28;20240;-84
2021/03/31 00:53:46;;;;;;;11.17;7.37;;;;;;;14.01;45.94;96532.34;5038916;28;20225;-83
2021/03/31 00:56:28;;;;;;;12.50;7.20;;;;;;;13.96;45.55;96530.28;5049012;28;20825;-84
2021/03/31 00:59:23;;;;;;;11.27;6.77;;;;;;;13.91;46.20;96537.75;5049185;28;20197;-84
2021/03/31 01:02:22;;;;;;;11.03;6.73;;;;;;;13.85;45.90;96533.28;5050678;28;20228;-84
2021/03/31 01:04:55;;;;;;;10.57;6.83;;;;;;;13.89;46.19;96531.13;5033094;28;20225;-83
2021/03/31 01:07:28;;;;;;;10.57;6.70;;;;;;;13.90;45.64;96530.94;5069743;28;20220;-82
2021/03/31 01:09:56;;;;;;;9.13;6.67;;;;;;;13.89;45.80;96528.53;5069491;28;20229;-84
2021/03/31 01:15:35;;;;;;;10.07;6.73;;;;;;;13.52;47.00;96524.09;5049661;28;20248;-85
2021/03/31 01:18:23;;;;;;;11.10;6.90;;;;;;;13.45;47.59;96522.22;5070421;28;20346;-84
2021/03/31 01:21:38;;;;;;;9.30;6.97;;;;;;;13.43;47.42;96516.41;5059380;28;20319;-84
2021/03/31 01:24:47;;;;;;;6.37;5.77;;;;;;;13.42;47.62;96521.75;5073235;28;20224;-83
2021/03/31 01:27:22;;;;;;;8.37;5.67;;;;;;;13.44;47.08;96522.38;5065176;28;20275;-84
2021/03/31 01:30:28;;;;;;;6.17;5.30;;;;;;;13.53;47.02;96525.72;5073144;28;20212;-85
2021/03/31 01:33:37;;;;;;;;;;;;;;;;;;;;;
2021/03/31 01:39:08;;;;;;;7.07;5.13;;;;;;;13.42;46.99;96516.56;4991496;28;20219;-83
2021/03/31 01:41:40;;;;;;;7.13;5.27;;;;;;;13.26;47.89;96521.84;4990824;28;20227;-83
2021/03/31 01:44:11;;;;;;;7.17;5.20;;;;;;;13.25;47.30;96523.63;4992286;28;20258;-85
2021/03/31 01:46:46;;;;;;;8.30;5.50;;;;;;;13.29;47.20;96521.47;4992000;28;20224;-84
2021/03/31 01:49:18;;;;;;;8.63;5.90;;;;;;;13.30;46.97;96510.16;5035192;28;20228;-84
2021/03/31 01:51:53;;;;;;;9.60;5.60;;;;;;;13.29;47.09;96522.28;5052461;28;20649;-85
2021/03/31 01:54:29;;;;;;;9.33;5.67;;;;;;;13.32;47.45;96510.81;5041050;28;20248;-82
2021/03/31 01:56:58;;;;;;;9.03;5.23;;;;;;;13.37;46.82;96511.09;5043044;28;20225;-83
2021/03/31 01:59:36;;;;;;;7.33;5.07;;;;;;;13.30;47.27;96513.56;5052850;28;20225;-84
2021/03/31 02:02:08;;;;;;;8.67;5.37;;;;;;;13.23;47.13;96517.00;5053186;28;20267;-84
2021/03/31 02:04:44;;;;;;;6.87;5.20;;;;;;;13.08;47.51;96517.69;5068971;28;20201;-84
2021/03/31 02:07:23;;;;;;;5.93;5.03;;;;;;;13.10;47.38;96505.38;5072988;28;20322;-84
2021/03/31 02:09:54;;;;;;;7.00;5.50;;;;;;;12.91;47.64;96502.41;5072952;28;20225;-85
2021/03/31 02:12:29;;;;;;;11.97;6.07;;;;;;;12.86;47.87;96507.28;5061884;28;20229;-83
2021/03/31 02:15:07;;;;;;;7.50;5.43;;;;;;;12.88;47.61;96508.75;5072610;28;20216;-84
2021/03/31 02:17:46;;;;;;;7.57;5.33;;;;;;;12.82;48.47;96513.75;5061674;28;20236;-83
2021/03/31 02:20:27;;;;;;;7.20;5.30;;;;;;;12.74;48.68;96506.84;5072110;28;20590;-84
2021/03/31 02:23:03;;;;;;;7.33;5.80;;;;;;;12.69;48.89;96504.78;5072843;28;20224;-84
2021/03/31 02:25:31;;;;;;;8.23;5.57;;;;;;;12.69;48.54;96501.38;5072627;28;20212;-85
2021/03/31 02:28:03;;;;;;;5.77;5.13;;;;;;;12.59;49.26;96500.75;5072716;28;20240;-84
2021/03/31 02:30:30;;;;;;;6.30;5.00;;;;;;;12.44;49.45;96505.81;5072456;28;20674;-83
2021/03/31 02:33:03;;;;;;;6.17;5.53;;;;;;;12.31;49.88;96502.94;5071672;28;20768;-84
2021/03/31 02:35:37;;;;;;;7.10;4.80;;;;;;;12.37;49.63;96497.09;5062081;28;20220;-83
2021/03/31 02:38:13;;;;;;;7.07;5.13;;;;;;;12.40;49.59;96499.34;5060724;28;20225;-83
2021/03/31 02:40:50;;;;;;;6.30;5.00;;;;;;;12.42;49.92;96503.38;5053268;28;20204;-84
2021/03/31 02:43:30;;;;;;;7.37;5.20;;;;;;;12.49;49.58;96489.81;5053059;28;20236;-83
2021/03/31 02:46:00;;;;;;;7.27;4.63;;;;;;;12.61;49.11;96497.03;5051435;28;20233;-84
2021/03/31 02:48:28;;;;;;;8.17;4.80;;;;;;;12.65;48.67;96493.16;5042199;28;20315;-83
2021/03/31 02:51:02;;;;;;;6.83;4.30;;;;;;;12.70;48.20;96485.69;5051793;28;20247;-84
2021/03/31 02:53:32;;;;;;;8.53;4.27;;;;;;;12.76;48.01;96492.78;5043631;28;20228;-85
2021/03/31 02:56:20;;;;;;;5.73;4.30;;;;;;;12.73;48.43;96484.56;5052343;28;20221;-83
2021/03/31 02:58:53;;;;;;;6.47;4.30;;;;;;;12.59;48.73;96491.22;5052168;28;20628;-84
2021/03/31 03:01:40;;;;;;;5.77;3.93;;;;;;;12.55;48.88;96489.13;5051431;28;20658;-84
2021/03/31 03:04:44;;;;;;;5.83;4.30;;;;;;;12.49;49.06;96484.66;5060586;28;20216;-84
2021/03/31 03:07:17;;;;;;;5.83;4.50;;;;;;;12.34;49.00;96487.91;5071101;28;20255;-83
2021/03/31 03:09:47;;;;;;;5.47;4.23;;;;;;;12.32;48.93;96489.03;5072150;28;20256;-84
2021/03/31 03:12:18;;;;;;;8.23;4.27;;;;;;;12.18;49.48;96485.34;5072328;28;20626;-84
2021/03/31 03:14:52;;;;;;;8.10;4.03;;;;;;;12.18;48.95;96487.13;5071875;28;20303;-82
2021/03/31 03:17:21;;;;;;;5.10;4.60;;;;;;;12.18;49.20;96477.59;5071467;28;20233;-83
2021/03/31 03:20:02;;;;;;;5.27;4.10;;;;;;;12.19;48.85;96478.41;5072373;28;20254;-83
2021/03/31 03:22:53;;;;;;;6.93;4.50;;;;;;;12.14;49.58;96478.91;5072163;28;20286;-83
2021/03/31 03:25:34;;;;;;;6.70;4.10;;;;;;;12.14;49.39;96475.50;5071292;28;20229;-84
2021/03/31 03:28:08;;;;;;;8.07;4.23;;;;;;;12.08;49.83;96487.31;5070943;28;20848;-83
2021/03/31 03:30:48;;;;;;;5.23;3.83;;;;;;;12.06;49.97;96484.91;5071998;28;20221;-83
2021/03/31 03:33:21;;;;;;;5.27;3.77;;;;;;;12.05;49.71;96492.81;5061821;28;20227;-84
2021/03/31 03:35:51;;;;;;;9.83;4.00;;;;;;;12.11;49.50;96487.00;5072212;28;20695;-83
2021/03/31 03:38:33;;;;;;;6.10;4.17;;;;;;;12.12;49.26;96480.06;5048679;28;20896;-85
2021/03/31 03:41:12;;;;;;;7.60;4.17;;;;;;;12.08;49.39;96477.00;5050679;28;20193;-84
2021/03/31 03:43:44;;;;;;;6.40;3.87;;;;;;;11.97;50.07;96487.63;5052865;28;20197;-84
2021/03/31 03:46:11;;;;;;;6.87;4.07;;;;;;;11.88;50.03;96476.53;5050138;28;20221;-85
2021/03/31 03:48:39;;;;;;;5.37;3.90;;;;;;;11.95;50.16;96484.41;5041467;28;20316;-85
2021/03/31 03:51:28;;;;;;;5.03;3.70;;;;;;;11.99;49.92;96475.38;5052164;28;20878;-85
2021/03/31 03:54:00;;;;;;;7.10;4.30;;;;;;;11.98;50.09;96484.91;5047032;28;20716;-84
2021/03/31 03:56:29;;;;;;;5.70;4.13;;;;;;;11.86;50.44;96475.88;5051522;28;20312;-85
2021/03/31 03:58:58;;;;;;;10.80;4.17;;;;;;;11.81;50.35;96485.88;5051778;28;20205;-84
2021/03/31 04:01:34;;;;;;;4.27;3.83;;;;;;;11.89;49.94;96479.91;5051693;28;20220;-85
2021/03/31 04:04:02;;;;;;;6.17;3.87;;;;;;;11.82;50.21;96482.31;5052373;28;20270;-84
2021/03/31 04:06:32;;;;;;;7.23;4.00;;;;;;;11.86;50.16;96475.88;5059892;28;20712;-83
2021/03/31 04:11:58;;;;;;;4.90;3.80;;;;;;;11.79;50.19;96479.25;5070571;28;20224;-84
2021/03/31 04:14:34;;;;;;;4.77;3.40;;;;;;;11.76;50.27;96473.44;5061401;28;20312;-83
2021/03/31 04:17:07;;;;;;;7.87;3.47;;;;;;;11.74;49.78;96479.69;5070628;28;20327;-83
2021/03/31 04:19:46;;;;;;;10.70;3.70;;;;;;;11.68;49.95;96473.44;5071680;28;20205;-84
2021/03/31 04:25:46;;;;;;;7.90;3.80;;;;;;;11.87;49.52;96462.00;4980814;28;20810;-83
2021/03/31 04:28:32;;;;;;;7.20;4.17;;;;;;;11.91;49.46;96465.06;5067533;28;20228;-84
2021/03/31 04:31:05;;;;;;;9.60;3.97;;;;;;;11.91;49.26;96468.47;5059831;28;20225;-84
2021/03/31 04:33:43;;;;;;;10.97;3.57;;;;;;;11.88;49.89;96473.94;5071667;28;20315;-85
2021/03/31 04:36:28;;;;;;;7.77;3.40;;;;;;;11.72;50.37;96472.16;5072401;28;20228;-84
2021/03/31 04:39:06;;;;;;;5.23;3.50;;;;;;;11.75;50.16;96469.22;5056461;28;20223;-81
2021/03/31 04:41:50;;;;;;;8.87;3.63;;;;;;;11.79;49.85;96471.53;5046327;28;20236;-84
2021/03/31 04:44:54;;;;;;;8.27;3.47;;;;;;;11.65;50.48;96473.75;5070070;28;21530;-83
2021/03/31 04:47:40;;;;;;;10.73;3.83;;;;;;;11.62;50.65;96460.38;5070575;28;20224;-85
2021/03/31 04:50:08;;;;;;;11.13;3.77;;;;;;;11.64;50.56;96469.56;5070200;28;20717;-82
2021/03/31 04:52:34;;;;;;;13.60;3.80;;;;;;;11.61;50.60;96462.13;5071150;28;20193;-83
2021/03/31 04:55:00;;;;;;;7.70;3.60;;;;;;;11.61;50.59;96462.13;5070189;28;20639;-82
2021/03/31 04:57:26;;;;;;;9.30;4.37;;;;;;;11.60;50.40;96464.88;5073315;28;20271;-82
2021/03/31 04:59:53;;;;;;;11.23;3.70;;;;;;;11.61;50.74;96464.72;5075136;28;20252;-83
2021/03/31 05:02:19;;;;;;;15.43;4.33;;;;;;;11.64;50.67;96471.34;5075124;28;20228;-82
2021/03/31 05:04:45;;;;;;;11.60;3.73;;;;;;;11.59;50.33;96469.22;5075125;28;20250;-83
2021/03/31 05:07:11;;;;;;;6.67;3.40;;;;;;;11.64;50.08;96471.34;5073267;28;20228;-83
2021/03/31 05:09:37;;;;;;;7.03;3.33;;;;;;;11.69;49.86;96469.88;5075520;28;20233;-83
2021/03/31 05:12:05;;;;;;;6.40;3.73;;;;;;;11.58;50.88;96470.19;5074520;28;20240;-81
2021/03/31 05:14:31;;;;;;;6.57;3.73;;;;;;;11.47;51.33;96473.09;5074373;28;20633;-83
2021/03/31 05:16:58;;;;;;;7.33;3.50;;;;;;;11.46;50.66;96478.41;5074271;28;20228;-83
2021/03/31 05:19:24;;;;;;;8.27;3.37;;;;;;;11.40;51.03;96477.28;5074788;28;20262;-82
2021/03/31 05:21:50;;;;;;;11.70;3.80;;;;;;;11.45;50.32;96479.38;5074519;28;20649;-83
2021/03/31 05:24:16;;;;;;;6.93;3.23;;;;;;;11.54;50.52;96470.69;5074553;28;20228;-83
2021/03/31 05:26:42;;;;;;;6.33;3.43;;;;;;;11.58;50.74;96470.19;5074656;28;20629;-83
2021/03/31 05:29:08;;;;;;;8.47;3.67;;;;;;;11.67;50.40;96476.97;5074429;28;20299;-83
2021/03/31 05:31:34;;;;;;;8.83;3.53;;;;;;;11.78;49.71;96470.72;5074849;28;20230;-82
2021/03/31 05:34:00;;;;;;;6.77;3.17;;;;;;;11.89;49.25;96467.81;5073467;28;20600;-83
2021/03/31 05:36:26;;;;;;;5.80;3.17;;;;;;;12.03;48.98;96468.94;5073170;28;20228;-83
2021/03/31 05:38:52;;;;;;;9.67;3.10;;;;;;;12.16;48.81;96465.81;5055373;28;20233;-83
2021/03/31 05:41:19;;;;;;;8.47;3.67;;;;;;;12.26;48.09;96469.06;5053756;28;20229;-83
2021/03/31 05:43:45;;;;;;;10.13;3.90;;;;;;;12.33;48.14;96477.72;5055157;28;20209;-84
2021/03/31 05:46:11;;;;;;;6.93;3.20;;;;;;;12.40;48.07;96470.94;5053714;28;20256;-84
2021/03/31 05:48:37;;;;;;;7.13;3.47;;;;;;;12.48;47.52;96470.13;5053503;28;20233;-83
2021/03/31 05:51:05;;;;;;;9.47;3.37;;;;;;;12.54;47.60;96469.44;5053436;28;20308;-83
2021/03/31 05:53:31;;;;;;;7.30;2.97;;;;;;;12.62;47.38;96464.25;5053258;28;20229;-83
2021/03/31 05:55:57;;;;;;;7.50;2.60;;;;;;;12.66;47.09;96470.72;5053687;28;20266;-83
2021/03/31 05:58:23;;;;;;;5.40;2.67;;;;;;;12.62;47.15;96466.84;5053751;28;20205;-80
2021/03/31 06:00:50;;;;;;;6.80;2.83;;;;;;;12.67;46.87;96467.16;5053697;28;20657;-81
2021/03/31 06:03:18;;;;;;;10.97;2.80;;;;;;;12.70;46.76;96461.66;5057004;28;20262;-83
2021/03/31 06:05:46;;;;;;;7.10;3.07;;;;;;;12.71;46.51;96460.66;5073476;28;20247;-84
2021/03/31 06:08:14;;;;;;;6.57;3.30;;;;;;;12.73;46.98;96462.09;5072432;28;20201;-83
2021/03/31 06:10:40;;;;;;;9.63;3.37;;;;;;;12.76;46.74;96454.00;5073912;28;20201;-81
2021/03/31 06:13:07;;;;;;;8.13;3.07;;;;;;;12.86;46.66;96456.41;5073369;28;20266;-80
2021/03/31 06:15:38;;;;;;;7.03;2.93;;;;;;;12.90;46.16;96455.06;5063423;28;20217;-82
2021/03/31 06:18:11;;;;;;;6.67;3.03;;;;;;;12.97;45.50;96450.84;5053220;28;20254;-83
2021/03/31 06:20:58;;;;;;;10.37;2.87;;;;;;;12.96;46.28;96453.59;5053532;28;20588;-81
2021/03/31 06:23:37;;;;;;;7.37;2.97;;;;;;;13.09;46.28;96446.09;5053998;28;20312;-82
2021/03/31 06:26:17;;;;;;;8.93;3.30;;;;;;;13.18;44.76;96446.88;5054750;28;20220;-83
2021/03/31 06:28:43;;;;;;;8.53;2.93;;;;;;;13.28;45.28;96447.44;5053841;28;20209;-83
2021/03/31 06:31:11;;;;;;;10.33;3.23;;;;;;;13.41;44.64;96447.72;5053277;28;20612;-83
2021/03/31 06:33:38;;;;;;;6.40;2.63;;;;;;;13.45;44.28;96454.16;5053850;28;20233;-83
2021/03/31 06:36:06;;;;;;;9.03;2.67;;;;;;;13.49;43.63;96453.59;5053622;28;20226;-83
2021/03/31 06:38:35;;;;;;;12.10;2.50;;;;;;;13.58;43.23;96438.03;5068390;28;20250;-83
2021/03/31 06:41:28;;;;;;;5.27;2.23;;;;;;;13.64;42.85;96445.13;5073529;28;20196;-83
2021/03/31 06:44:06;;;;;;;6.53;2.30;;;;;;;13.76;42.85;96438.53;5055765;28;20634;-83
2021/03/31 06:46:40;;;;;;;6.70;2.37;;;;;;;13.71;42.57;96440.84;5053022;28;20221;-83
2021/03/31 06:49:06;;;;;;;6.50;2.47;;;;;;;13.79;42.61;96433.81;5053450;28;20253;-83
2021/03/31 06:51:32;;;;;;;7.30;2.50;;;;;;;14.02;42.95;96440.72;5052885;28;20217;-83
2021/03/31 06:54:18;;;;;;;6.23;3.17;;;;;;;14.20;41.40;96445.56;5053211;28;20222;-83
2021/03/31 06:56:46;;;;;;;6.43;2.70;;;;;;;14.36;41.72;96443.59;5053893;28;20225;-83
2021/03/31 06:59:13;;;;;;;7.13;2.80;;;;;;;14.61;41.47;96443.38;5053330;28;20699;-83
2021/03/31 07:01:40;;;;;;;9.70;2.83;;;;;;;14.80;41.55;96448.81;5069221;28;20225;-83
2021/03/31 07:04:07;;;;;;;5.57;3.03;;;;;;;14.99;41.67;96444.84;5072163;28;20217;-83
2021/03/31 07:06:33;;;;;;;11.17;2.90;;;;;;;15.15;40.98;96442.00;5072668;28;20225;-83
2021/03/31 07:09:00;;;;;;;13.67;3.10;;;;;;;15.36;40.57;96446.41;5072820;28;20236;-82
2021/03/31 07:11:39;;;;;;;7.70;2.70;;;;;;;15.52;40.38;96445.34;5073454;28;20330;-83
2021/03/31 07:14:07;;;;;;;8.67;2.43;;;;;;;15.67;40.81;96445.31;5073444;28;20709;-81
2021/03/31 07:16:33;;;;;;;6.53;2.57;;;;;;;15.87;40.52;96443.69;5073768;28;20311;-83
2021/03/31 07:19:01;;;;;;;9.47;2.50;;;;;;;15.88;39.93;96443.50;5072364;28;20231;-82
2021/03/31 07:21:27;;;;;;;6.60;2.60;;;;;;;16.00;39.74;96448.97;5071604;28;20228;-83
2021/03/31 07:23:53;;;;;;;11.73;3.93;;;;;;;16.16;39.56;96448.69;5073483;28;20228;-83
2021/03/31 07:26:20;;;;;;;12.73;6.03;;;;;;;16.35;39.33;96449.03;5060823;28;20251;-83
2021/03/31 07:28:49;;;;;;;15.33;4.77;;;;;;;16.50;39.00;96447.91;5064816;28;20220;-83
2021/03/31 07:31:21;;;;;;;12.98;4.28;;;;;;;16.62;38.64;96447.34;5052627;28;20217;-82
2021/03/31 07:34:00;;;;;;;11.38;3.90;;;;;;;16.73;38.45;96447.66;5053154;28;20235;-83
2021/03/31 07:36:27;;;;;;;11.10;3.58;;;;;;;16.92;37.98;96440.94;5053677;28;20345;-81
2021/03/31 07:38:54;;;;;;;5.23;2.80;;;;;;;17.13;37.93;96435.56;5072409;28;20224;-82
2021/03/31 07:41:22;;;;;;;5.78;2.53;;;;;;;17.30;37.49;96440.44;5072856;28;20235;-84
2021/03/31 07:43:50;;;;;;;7.00;2.90;;;;;;;17.46;36.95;96440.84;5072704;28;20205;-83
2021/03/31 07:46:23;;;;;;;7.63;5.32;;;;;;;17.63;36.68;96435.25;5072284;28;20232;-81
2021/03/31 07:48:50;;;;;;;15.30;10.02;;;;;;;17.78;36.42;96435.88;5071757;28;20229;-82
2021/03/31 07:51:18;;;;;;;9.00;3.58;;;;;;;17.98;36.11;96441.91;5072959;28;20235;-80
2021/03/31 07:53:46;;;;;;;4.53;2.90;;;;;;;18.16;36.33;96442.09;5072649;28;20221;-82
2021/03/31 07:56:16;;;;;;;5.40;3.10;;;;;;;18.40;35.77;96440.63;5072254;28;20269;-82
2021/03/31 07:58:42;;;;;;;7.47;3.08;;;;;;;18.51;35.30;96436.59;5072777;28;20204;-84
2021/03/31 08:01:11;;;;;;;5.55;3.70;;;;;;;18.60;34.84;96431.00;5071527;28;20259;-83
2021/03/31 08:03:41;;;;;;;8.60;3.58;;;;;;;18.75;34.73;96432.53;5070787;28;20251;-83
2021/03/31 08:06:15;;;;;;;6.25;3.17;;;;;;;18.96;34.09;96435.66;5071317;28;20238;-84
2021/03/31 08:08:56;;;;;;;7.47;3.08;;;;;;;19.11;33.47;96429.34;5070866;28;20217;-83
2021/03/31 08:11:49;;;;;;;9.27;3.47;;;;;;;19.21;33.60;96424.50;5071604;28;20221;-83
2021/03/31 08:14:16;;;;;;;7.20;3.67;;;;;;;19.23;33.11;96420.69;5072076;28;20254;-84
2021/03/31 08:16:45;;;;;;;8.23;3.42;;;;;;;19.49;32.98;96426.72;5072014;28;20571;-84
2021/03/31 08:19:14;;;;;;;6.47;3.28;;;;;;;19.53;33.24;96430.53;5060099;28;20236;-85
2021/03/31 08:21:41;;;;;;;8.02;5.60;;;;;;;19.72;32.60;96426.19;5050462;28;22137;-83
2021/03/31 08:24:08;;;;;;;10.25;4.80;;;;;;;19.91;33.12;96430.47;5051487;28;20252;-81
2021/03/31 08:26:37;;;;;;;5.35;3.00;;;;;;;19.97;32.32;96427.78;5050920;28;20225;-81
2021/03/31 08:29:05;;;;;;;5.90;3.00;;;;;;;20.25;32.82;96424.72;5051173;28;20697;-84
2021/03/31 08:31:37;;;;;;;4.60;3.50;;;;;;;20.30;32.62;96426.69;5051119;28;20208;-84
2021/03/31 08:34:04;;;;;;;3.92;2.85;;;;;;;20.56;32.07;96412.56;5051074;28;20225;-83
2021/03/31 08:36:30;;;;;;;9.43;3.08;;;;;;;20.82;32.12;96409.63;5051214;28;20234;-83
2021/03/31 08:38:59;;;;;;;6.13;3.20;;;;;;;20.89;31.62;96410.34;5069271;28;20712;-84
2021/03/31 08:41:28;;;;;;;10.30;3.92;;;;;;;21.09;30.75;96411.91;5070776;28;20224;-83
2021/03/31 08:44:12;;;;;;;6.15;3.25;;;;;;;21.03;31.07;96416.19;5070892;28;20334;-84
2021/03/31 08:46:38;;;;;;;7.93;2.97;;;;;;;21.19;30.72;96410.34;5068992;28;20216;-84
2021/03/31 08:49:05;;;;;;;6.05;3.28;;;;;;;21.29;30.50;96399.38;5070472;28;20277;-84
2021/03/31 08:51:32;;;;;;;6.80;3.20;;;;;;;21.48;30.49;96403.50;5070246;28;20251;-83
2021/03/31 08:54:01;;;;;;;8.15;3.70;;;;;;;21.81;30.36;96404.81;5070389;28;20604;-84
2021/03/31 08:56:27;;;;;;;5.07;3.28;;;;;;;21.98;30.54;96410.97;5070222;28;20220;-84
2021/03/31 08:58:56;;;;;;;8.32;3.60;;;;;;;22.08;30.24;96408.63;5071362;28;20197;-84
2021/03/31 09:01:26;;;;;;;7.07;3.63;;;;;;;21.97;29.49;96404.13;5068297;28;20224;-82
2021/03/31 09:04:09;;;;;;;8.30;3.30;;;;;;;22.18;29.77;96405.41;5055404;28;20232;-82
2021/03/31 09:06:36;;;;;;;11.40;3.70;;;;;;;22.40;29.70;96398.56;5050673;28;20279;-84
2021/03/31 09:09:03;;;;;;;8.30;2.97;;;;;;;22.47;28.49;96393.19;5050497;28;20225;-83
2021/03/31 09:11:30;;;;;;;6.95;3.17;;;;;;;22.68;28.24;96390.75;5050824;28;20224;-84
2021/03/31 09:13:56;;;;;;;6.38;3.17;;;;;;;22.77;28.15;96385.09;5051221;28;20548;-83
2021/03/31 09:16:23;;;;;;;9.57;3.90;;;;;;;22.62;28.43;96385.63;5049432;28;20279;-83
2021/03/31 09:18:50;;;;;;;4.82;3.33;;;;;;;22.50;27.80;96387.47;5051149;28;20225;-83
2021/03/31 09:21:26;;;;;;;11.65;9.73;;;;;;;22.53;27.61;96382.53;5050408;28;20747;-83
2021/03/31 09:23:53;;;;;;;6.82;3.55;;;;;;;22.73;28.02;96388.19;5050549;28;20223;-84
2021/03/31 09:26:22;;;;;;;7.18;4.00;;;;;;;22.79;27.91;96378.63;5049626;28;20233;-84
2021/03/31 09:28:48;;;;;;;6.57;3.60;;;;;;;22.90;27.93;96377.00;5050807;28;20209;-83
2021/03/31 09:31:22;;;;;;;5.88;3.17;;;;;;;23.04;27.31;96368.59;5049322;28;20225;-83
2021/03/31 09:33:48;;;;;;;8.50;3.80;;;;;;;22.86;27.62;96371.41;5050059;28;20224;-83
2021/03/31 09:36:16;;;;;;;8.75;3.40;;;;;;;23.06;27.65;96368.38;5049641;28;20237;-83
2021/03/31 09:38:43;;;;;;;7.97;3.50;;;;;;;23.22;26.98;96375.47;5066679;28;20590;-83
2021/03/31 09:41:10;;;;;;;6.93;3.53;;;;;;;23.27;27.09;96370.31;5070554;28;20232;-84
2021/03/31 09:43:36;;;;;;;6.85;3.90;;;;;;;23.58;26.99;96376.09;5071954;28;20224;-84
2021/03/31 09:46:03;;;;;;;6.95;3.28;;;;;;;23.79;26.55;96378.00;5074391;28;20285;-83
2021/03/31 09:48:29;;;;;;;6.07;3.65;;;;;;;23.88;25.71;96368.66;5073773;28;20270;-84
2021/03/31 09:50:55;;;;;;;7.82;3.60;;;;;;;24.01;26.05;96372.81;5073690;28;20644;-84
2021/03/31 09:53:23;;;;;;;7.47;3.60;;;;;;;23.96;25.36;96370.09;5073849;28;20274;-84
2021/03/31 09:55:49;;;;;;;5.85;3.35;;;;;;;23.80;26.23;96368.28;5074920;28;20259;-84
2021/03/31 09:58:21;;;;;;;12.73;3.88;;;;;;;23.96;26.33;96364.84;5074355;28;20719;-84
2021/03/31 10:00:47;;;;;;;7.40;3.58;;;;;;;23.81;25.71;96354.91;5074523;28;20236;-83
2021/03/31 10:03:30;;;;;;;;;;;;;;;;;;;;;
2021/03/31 10:09:43;;;;;;;8.98;3.35;;;;;;;24.20;25.73;96353.06;5073304;28;20782;-85
2021/03/31 10:12:34;;;;;;;11.18;10.05;;;;;;;24.22;25.81;96348.38;5072748;28;20774;-85
2021/03/31 10:18:35;;;;;;;10.13;3.88;;;;;;;24.47;24.41;96345.25;5038029;28;20228;-83
2021/03/31 10:21:18;;;;;;;9.07;4.20;;;;;;;24.66;25.18;96332.56;5072987;28;20228;-85
2021/03/31 10:24:10;;;;;;;10.95;4.22;;;;;;;24.39;24.91;96328.06;5073542;28;20247;-85
2021/03/31 10:26:37;;;;;;;8.15;4.25;;;;;;;24.34;25.49;96329.84;5073786;28;20239;-87
2021/03/31 10:29:06;;;;;;;6.60;3.85;;;;;;;24.39;25.41;96328.06;5074809;28;20216;-88
2021/03/31 10:31:35;;;;;;;7.75;4.00;;;;;;;24.21;25.37;96320.44;5074600;28;20743;-86
2021/03/31 10:34:06;;;;;;;7.30;4.05;;;;;;;24.28;25.16;96321.06;5074137;28;20582;-87
2021/03/31 10:36:52;;;;;;;7.03;3.90;;;;;;;24.44;25.70;96312.31;5072842;28;20233;-87
2021/03/31 10:50:43;;;;;;;7.70;4.32;;;;;;;24.61;24.96;96311.47;5072102;28;20247;-86
2021/03/31 10:53:10;;;;;;;5.78;4.15;;;;;;;24.52;24.21;96302.41;5073278;28;20219;-86
2021/03/31 10:58:41;;;;;;;5.32;4.22;;;;;;;24.38;23.98;96300.16;5070725;28;20224;-86
2021/03/31 11:01:08;;;;;;;6.55;4.40;;;;;;;24.42;24.12;96303.09;5073767;28;20232;-86
2021/03/31 11:03:53;;;;;;;7.60;4.13;;;;;;;24.57;25.33;96298.00;5074001;28;20252;-85
2021/03/31 11:06:32;;;;;;;7.45;3.47;;;;;;;24.82;24.98;96294.84;5042747;28;20233;-85
2021/03/31 11:09:43;;;;;;;8.15;3.60;;;;;;;24.94;24.07;96292.88;5053832;28;20298;-85
2021/03/31 11:14:56;;;;;;;5.82;3.75;;;;;;;25.06;24.73;96282.16;4992741;28;20316;-85
2021/03/31 11:18:18;;;;;;;8.40;4.78;;;;;;;25.02;23.80;96278.41;5051980;28;20245;-86
2021/03/31 11:27:26;;;;;;;8.10;3.67;;;;;;;24.81;24.26;96269.53;5041593;28;20347;-86
2021/03/31 11:30:07;;;;;;;;;;;;;;;;;;;;;
2021/03/31 11:38:30;;;;;;;9.32;5.13;;;;;;;25.03;24.80;96257.09;4986098;28;20234;-86
2021/03/31 11:41:54;;;;;;;5.53;4.30;;;;;;;25.13;24.72;96249.28;4999914;28;20198;-86
2021/03/31 11:44:40;;;;;;;8.00;4.35;;;;;;;25.19;24.13;96247.50;4927523;28;20246;-85
2021/03/31 11:47:34;;;;;;;6.88;4.30;;;;;;;25.07;23.66;96244.22;5009486;28;20618;-85
2021/03/31 11:50:12;;;;;;;;;;;;;;;;;;;;;
2021/03/31 11:53:06;;;;;;;6.60;4.43;;;;;;;25.32;24.84;96247.03;5014814;28;20266;-86
2021/03/31 11:55:45;;;;;;;7.45;4.40;;;;;;;25.48;25.11;96240.03;4978818;28;20241;-86
2021/03/31 11:58:16;;;;;;;7.80;4.95;;;;;;;25.58;24.66;96237.47;5000185;28;20222;-86
2021/03/31 12:00:50;;;;;;;10.40;4.75;;;;;;;25.61;25.02;96238.78;5014012;28;20230;-85
2021/03/31 12:03:21;;;;;;;6.28;4.50;;;;;;;25.65;24.33;96237.25;5013361;28;20221;-85
2021/03/31 12:09:02;;;;;;;6.80;5.53;;;;;;;25.19;24.05;96220.34;4969862;28;20235;-86
2021/03/31 12:16:12;;;;;;;9.27;8.38;;;;;;;25.20;24.71;96220.09;4960988;28;20237;-86
2021/03/31 12:19:00;;;;;;;9.30;8.32;;;;;;;25.47;25.01;96220.78;4929537;28;20227;-84
2021/03/31 12:42:10;;;;;;;13.20;7.30;;;;;;;25.82;23.43;96193.00;4964333;28;20224;-86
2021/03/31 12:51:15;;;;;;;11.98;7.75;;;;;;;25.71;23.87;96176.34;4979967;28;20223;-86
2021/03/31 12:57:47;;;;;;;;;;;;;;;;;;;;;
2021/03/31 13:04:00;;;;;;;17.33;7.95;;;;;;;25.92;25.00;96168.53;5042116;28;20219;-86
2021/03/31 13:07:05;;;;;;;10.80;7.68;;;;;;;26.03;24.69;96162.22;5027059;28;20234;-86
2021/03/31 13:22:00;;;;;;;15.20;10.75;;;;;;;25.80;24.97;96158.16;5036448;28;20224;-85
2021/03/31 13:33:00;;;;;;;11.70;8.75;;;;;;;25.96;23.73;96135.28;4983370;28;20223;-84
2021/03/31 13:52:50;;;;;;;9.98;8.98;;;;;;;26.25;24.75;96122.41;4918199;28;20236;-86
2021/03/31 13:55:35;;;;;;;21.60;19.35;;;;;;;26.20;24.49;96115.25;4959321;28;20232;-86
2021/03/31 13:58:09;;;;;;;13.93;9.90;;;;;;;26.27;24.24;96112.38;4954101;28;20229;-86
2021/03/31 14:00:58;;;;;;;11.35;7.90;;;;;;;26.17;25.12;96113.94;4944718;29;20232;-87
2021/03/31 14:06:45;;;;;;;13.20;7.65;;;;;;;25.97;23.93;96103.38;4951900;28;20247;-86
2021/03/31 14:09:17;;;;;;;11.02;8.32;;;;;;;26.04;24.91;96111.81;4975283;28;20757;-86
2021/03/31 14:16:17;;;;;;;8.55;7.35;;;;;;;25.87;23.74;96095.41;4896597;29;20353;-84
2021/03/31 14:18:45;;;;;;;13.68;8.20;;;;;;;25.79;24.77;96094.06;4867015;29;20231;-85
2021/03/31 14:21:18;;;;;;;13.63;8.57;;;;;;;25.83;24.24;96088.25;4932882;29;20613;-85
2021/03/31 14:24:32;;;;;;;10.25;7.63;;;;;;;25.84;24.13;96084.56;4926142;28;20229;-84
2021/03/31 14:26:59;;;;;;;10.35;8.02;;;;;;;25.92;24.99;96084.88;4890512;29;20633;-84
2021/03/31 14:29:39;;;;;;;14.75;8.63;;;;;;;25.98;24.36;96085.69;4934588;28;20734;-86
2021/03/31 14:32:24;;;;;;;9.23;6.50;;;;;;;26.08;24.88;96077.75;4961334;28;20266;-86
2021/03/31 14:35:19;;;;;;;10.45;8.27;;;;;;;26.12;24.60;96074.34;4973066;28;20215;-85